Time;durP1;ratioP1;P1;durP2;ratioP2;P2;SDS_P1;SDS_P2;PMS_P1;PMS_P2;Temp;Humidity;BMP_temperature;BMP_pressure;BME280_temperature;BME280_humidity;BME280_pressure;Samples;Min_cycle;Max_cycle;Signal;HPM_P1;HPM_P2
2022/04/11 09:01:36;;;;;;;3.80;2.53;;;;;;;;;;6187362;23;20036;-89
2022/04/11 09:04:02;;;;;;;6.13;2.90;;;;;;;;;;6187686;23;20032;-84
2022/04/11 09:06:31;;;;;;;2.92;2.38;;;;;;;;;;6187449;23;19997;-86
2022/04/11 09:08:58;;;;;;;3.78;2.78;;;;;;;;;;6161558;23;20002;-85
2022/04/11 09:11:32;;;;;;;3.47;2.53;;;;;;;;;;6161504;23;20012;-81
2022/04/11 09:14:00;;;;;;;4.65;2.70;;;;;;;;;;6186686;23;20001;-80
2022/04/11 09:16:27;;;;;;;2.80;2.50;;;;;;;;;;6159641;23;20016;-80
2022/04/11 09:18:53;;;;;;;5.40;2.70;;;;;;;;;;6185966;23;20005;-82
2022/04/11 09:21:21;;;;;;;3.67;2.95;;;;;;;;;;6160694;23;20079;-82
2022/04/11 09:23:47;;;;;;;4.07;2.95;;;;;;;;;;6186955;23;20016;-82
2022/04/11 09:26:15;;;;;;;3.45;2.83;;;;;;;;;;6187314;23;20005;-82
2022/04/11 09:28:41;;;;;;;3.50;2.88;;;;;;;;;;6186808;23;20001;-80
2022/04/11 09:31:07;;;;;;;3.38;2.97;;;;;;;;;;6187241;23;20008;-80
2022/04/11 09:33:39;;;;;;;3.85;3.20;;;;;;;;;;6160871;23;20001;-80
2022/04/11 09:36:05;;;;;;;4.40;3.00;;;;;;;;;;6187100;23;20084;-82
2022/04/11 09:38:36;;;;;;;5.65;3.30;;;;;;;;;;6160971;23;20045;-81
2022/04/11 09:41:02;;;;;;;3.17;2.88;;;;;;;;;;6160688;23;20009;-79
2022/04/11 09:43:31;;;;;;;3.63;3.17;;;;;;;;;;6187114;23;20027;-81
2022/04/11 09:46:01;;;;;;;5.13;3.67;;;;;;;;;;6187126;23;20009;-84
2022/04/11 09:48:28;;;;;;;3.50;3.17;;;;;;;;;;6187118;23;20051;-85
2022/04/11 09:50:55;;;;;;;4.63;3.70;;;;;;;;;;6187249;23;20076;-88
2022/04/11 09:53:22;;;;;;;4.80;2.90;;;;;;;;;;6187565;23;20012;-88
2022/04/11 09:55:52;;;;;;;4.03;3.28;;;;;;;;;;6187332;23;20324;-88
2022/04/11 09:58:20;;;;;;;4.53;3.35;;;;;;;;;;6187010;23;20487;-87
2022/04/11 10:00:47;;;;;;;4.28;3.60;;;;;;;;;;6187459;23;20001;-86
2022/04/11 10:03:13;;;;;;;6.97;3.50;;;;;;;;;;6160938;23;20009;-87
2022/04/11 10:05:40;;;;;;;4.15;3.50;;;;;;;;;;6161789;23;20039;-90
2022/04/11 10:08:07;;;;;;;3.78;3.20;;;;;;;;;;6161910;23;20005;-89
2022/04/11 10:10:34;;;;;;;3.38;3.00;;;;;;;;;;6162211;23;20016;-86
2022/04/11 10:13:01;;;;;;;3.92;2.55;;;;;;;;;;6187745;23;20001;-89
2022/04/11 10:15:27;;;;;;;3.53;3.20;;;;;;;;;;6162480;23;20013;-90
2022/04/11 10:17:55;;;;;;;4.30;3.33;;;;;;;;;;6161396;23;20009;-87
2022/04/11 10:20:28;;;;;;;4.40;3.28;;;;;;;;;;6161294;23;20005;-91
2022/04/11 10:22:57;;;;;;;4.13;3.65;;;;;;;;;;6188109;23;20071;-88
2022/04/11 10:25:23;;;;;;;4.15;3.25;;;;;;;;;;6188128;23;20029;-88
2022/04/11 10:28:17;;;;;;;5.07;3.20;;;;;;;;;;6162837;23;20016;-91
2022/04/11 10:30:45;;;;;;;4.68;3.42;;;;;;;;;;6188460;23;20005;-86
2022/04/11 10:33:11;;;;;;;4.55;3.42;;;;;;;;;;6188925;23;20001;-90
2022/04/11 10:35:42;;;;;;;3.67;3.38;;;;;;;;;;6161652;23;20016;-85
2022/04/11 10:38:10;;;;;;;4.63;3.30;;;;;;;;;;6161159;23;20017;-89
2022/04/11 10:40:37;;;;;;;4.38;3.00;;;;;;;;;;6187775;23;20005;-91
2022/04/11 10:43:04;;;;;;;4.03;2.78;;;;;;;;;;6187656;23;20429;-89
2022/04/11 10:45:40;;;;;;;3.58;2.65;;;;;;;;;;6187417;23;20416;-86
2022/04/11 10:48:07;;;;;;;3.83;3.20;;;;;;;;;;6186527;23;20016;-85
2022/04/11 10:50:43;;;;;;;5.00;4.40;;;;;;;;;;6186298;23;20401;-86
2022/04/11 10:53:25;;;;;;;3.45;2.65;;;;;;;;;;6186383;23;20429;-84
2022/04/11 10:56:03;;;;;;;3.80;2.80;;;;;;;;;;6186940;23;20316;-89
2022/04/11 10:58:49;;;;;;;4.07;3.00;;;;;;;;;;6186125;23;19997;-81
2022/04/11 11:01:15;;;;;;;3.33;2.80;;;;;;;;;;6186187;23;20076;-84
2022/04/11 11:03:57;;;;;;;2.88;2.47;;;;;;;;;;6160184;23;20052;-83
2022/04/11 11:06:24;;;;;;;3.05;2.75;;;;;;;;;;6186837;23;20047;-89
2022/04/11 11:08:49;;;;;;;3.47;3.03;;;;;;;;;;6186609;23;20005;-89
2022/04/11 11:11:22;;;;;;;3.22;2.60;;;;;;;;;;6160613;23;20443;-90
2022/04/11 11:13:48;;;;;;;3.40;3.08;;;;;;;;;;6160588;23;20016;-90
2022/04/11 11:16:14;;;;;;;3.78;3.03;;;;;;;;;;6160694;23;20008;-88
2022/04/11 11:18:46;;;;;;;3.20;2.88;;;;;;;;;;6160672;23;20005;-89
2022/04/11 11:21:11;;;;;;;3.42;3.05;;;;;;;;;;6187205;23;20009;-89
2022/04/11 11:23:37;;;;;;;4.97;3.20;;;;;;;;;;6188027;23;20451;-88
2022/04/11 11:26:21;;;;;;;3.72;3.42;;;;;;;;;;6161572;23;20009;-89
2022/04/11 11:28:46;;;;;;;3.17;2.88;;;;;;;;;;6161653;23;20387;-87
2022/04/11 11:31:12;;;;;;;3.80;3.45;;;;;;;;;;6161765;23;20029;-88
2022/04/11 11:33:51;;;;;;;4.53;3.75;;;;;;;;;;6188237;23;20012;-89
2022/04/11 11:36:26;;;;;;;3.08;2.78;;;;;;;;;;6161684;23;20209;-88
2022/04/11 11:38:52;;;;;;;4.18;3.08;;;;;;;;;;6161550;23;20021;-90
2022/04/11 11:41:17;;;;;;;6.10;4.10;;;;;;;;;;6161133;23;20108;-88
2022/04/11 11:43:42;;;;;;;4.65;4.15;;;;;;;;;;6187304;23;20005;-90
2022/04/11 16:28:59;;;;;;;7.22;5.65;;;;;;;;;;6173178;23;20017;-89
2022/04/11 16:31:24;;;;;;;8.07;6.10;;;;;;;;;;6158820;23;20013;-94
2022/04/11 16:33:50;;;;;;;9.77;6.45;;;;;;;;;;6160298;23;20302;-86
2022/04/11 16:36:15;;;;;;;7.18;5.55;;;;;;;;;;6160681;23;20036;-84
2022/04/11 16:38:42;;;;;;;9.40;6.28;;;;;;;;;;6160883;23;20013;-86
2022/04/11 16:41:08;;;;;;;9.15;5.50;;;;;;;;;;6159816;23;20115;-86
2022/04/11 16:43:34;;;;;;;7.85;6.07;;;;;;;;;;6158600;23;20431;-87
2022/04/11 16:45:59;;;;;;;8.63;6.18;;;;;;;;;;6158904;23;20006;-86
2022/04/11 16:48:25;;;;;;;8.40;6.55;;;;;;;;;;6158031;23;20002;-84
2022/04/11 16:50:53;;;;;;;11.18;6.90;;;;;;;;;;6157866;23;20336;-87
2022/04/11 16:53:19;;;;;;;8.00;6.03;;;;;;;;;;6158464;23;20010;-93
2022/04/11 16:55:45;;;;;;;9.02;6.40;;;;;;;;;;6158938;23;20032;-81
2022/04/11 16:58:11;;;;;;;7.53;5.80;;;;;;;;;;6158966;23;20406;-80
2022/04/11 17:00:37;;;;;;;8.15;5.88;;;;;;;;;;6159144;23;20048;-82
2022/04/11 17:03:03;;;;;;;6.90;6.07;;;;;;;;;;6158815;23;20006;-88
2022/04/11 17:05:28;;;;;;;11.82;7.05;;;;;;;;;;6158751;23;20368;-89
2022/04/11 17:07:54;;;;;;;8.57;5.70;;;;;;;;;;6158828;23;20008;-86
2022/04/11 17:10:21;;;;;;;7.45;6.07;;;;;;;;;;6158381;23;20017;-80
2022/04/11 17:12:47;;;;;;;8.23;6.25;;;;;;;;;;6158745;23;20430;-93
2022/04/11 17:20:42;;;;;;;34.75;15.80;;;;;;;;;;6160462;23;20017;-82
2022/04/11 17:23:08;;;;;;;12.90;7.80;;;;;;;;;;6159529;23;20058;-80
2022/04/11 17:25:34;;;;;;;11.45;7.57;;;;;;;;;;6158431;23;20005;-78
2022/04/11 17:27:59;;;;;;;14.20;8.80;;;;;;;;;;6158049;23;20433;-82
2022/04/11 17:30:25;;;;;;;10.70;7.10;;;;;;;;;;6158739;23;20340;-82
2022/04/11 17:32:51;;;;;;;8.27;6.68;;;;;;;;;;6158047;23;20021;-85
2022/04/11 17:35:16;;;;;;;9.82;6.70;;;;;;;;;;6158123;23;20016;-79
2022/04/11 17:37:41;;;;;;;8.65;6.70;;;;;;;;;;6157827;23;20406;-80
2022/04/11 17:40:08;;;;;;;8.30;6.60;;;;;;;;;;6157379;23;20012;-78
2022/04/11 17:42:34;;;;;;;8.90;6.43;;;;;;;;;;6157355;23;20032;-81
2022/04/11 17:44:59;;;;;;;9.90;6.20;;;;;;;;;;6156999;23;20421;-81
2022/04/11 17:47:28;;;;;;;8.38;6.45;;;;;;;;;;6157292;23;20048;-83
2022/04/11 17:49:53;;;;;;;11.55;6.70;;;;;;;;;;6157463;23;20368;-82
2022/04/11 17:52:19;;;;;;;9.75;6.88;;;;;;;;;;6157433;23;20081;-82
2022/04/11 17:54:44;;;;;;;8.65;6.15;;;;;;;;;;6157197;23;20006;-82
2022/04/11 17:57:10;;;;;;;10.38;7.00;;;;;;;;;;6157191;23;20002;-80
2022/04/11 17:59:35;;;;;;;8.90;6.47;;;;;;;;;;6155703;23;20028;-86
2022/04/11 18:02:01;;;;;;;7.88;6.60;;;;;;;;;;6157541;23;20088;-78
2022/04/11 18:04:26;;;;;;;7.93;5.80;;;;;;;;;;6157852;23;20006;-82
2022/04/11 18:06:52;;;;;;;8.32;6.55;;;;;;;;;;6158011;23;20409;-84
2022/04/11 18:09:17;;;;;;;7.43;5.57;;;;;;;;;;6157365;23;20421;-91
2022/04/11 18:11:42;;;;;;;8.98;6.85;;;;;;;;;;6157204;23;20005;-80
2022/04/11 18:14:08;;;;;;;9.68;5.95;;;;;;;;;;6157094;23;20322;-79
2022/04/11 18:16:35;;;;;;;9.25;5.78;;;;;;;;;;6156828;23;20006;-81
2022/04/11 18:19:00;;;;;;;8.48;6.30;;;;;;;;;;6156678;23;20001;-82
2022/04/11 18:21:26;;;;;;;9.52;6.47;;;;;;;;;;6157271;23;20097;-80
2022/04/11 18:23:53;;;;;;;8.55;5.85;;;;;;;;;;6157365;23;20001;-81
2022/04/11 18:26:19;;;;;;;9.93;6.47;;;;;;;;;;6157083;23;20032;-81
2022/04/11 18:31:31;;;;;;;9.50;5.93;;;;;;;;;;6156248;23;20032;-79
2022/04/11 18:33:56;;;;;;;9.45;6.10;;;;;;;;;;6156875;23;20380;-80
2022/04/11 18:36:22;;;;;;;9.25;5.65;;;;;;;;;;6156897;23;20033;-78
2022/04/11 18:38:48;;;;;;;7.15;5.93;;;;;;;;;;6156758;23;19997;-79
2022/04/11 18:41:14;;;;;;;11.15;6.88;;;;;;;;;;6156887;23;20037;-80
2022/04/11 18:43:39;;;;;;;8.82;6.55;;;;;;;;;;6156556;23;20492;-79
2022/04/11 18:46:08;;;;;;;9.10;6.65;;;;;;;;;;6156950;23;20036;-80
2022/04/11 18:48:35;;;;;;;11.63;6.40;;;;;;;;;;6157042;23;20065;-80
2022/04/11 18:51:03;;;;;;;8.50;5.90;;;;;;;;;;6156861;23;20012;-80
2022/04/11 18:53:29;;;;;;;7.13;5.22;;;;;;;;;;6156865;23;20016;-79
2022/04/11 18:55:55;;;;;;;7.93;5.32;;;;;;;;;;6156603;23;20001;-80
2022/04/11 18:58:20;;;;;;;8.90;5.57;;;;;;;;;;6156606;23;20085;-80
2022/04/11 19:00:47;;;;;;;6.88;4.75;;;;;;;;;;6156607;23;20070;-79
2022/04/11 19:03:13;;;;;;;16.55;8.85;;;;;;;;;;6156377;23;20001;-80
2022/04/11 19:05:41;;;;;;;11.05;7.20;;;;;;;;;;6156521;23;20105;-80
2022/04/11 19:08:07;;;;;;;12.70;8.30;;;;;;;;;;6156523;23;20001;-80
2022/04/11 19:10:33;;;;;;;11.40;7.63;;;;;;;;;;6179990;23;20036;-79
2022/04/11 19:12:58;;;;;;;15.38;13.77;;;;;;;;;;6156798;23;20005;-79
2022/04/11 19:15:24;;;;;;;18.50;14.40;;;;;;;;;;6156262;23;20010;-79
2022/04/11 19:17:49;;;;;;;17.13;15.43;;;;;;;;;;6156654;23;20001;-80
2022/04/11 19:20:15;;;;;;;12.18;10.77;;;;;;;;;;6154795;23;20008;-79
2022/04/11 19:22:40;;;;;;;10.75;8.98;;;;;;;;;;6156518;23;20010;-80
2022/04/11 19:25:09;;;;;;;7.70;4.85;;;;;;;;;;6156382;23;20006;-79
2022/04/11 19:27:37;;;;;;;6.35;5.03;;;;;;;;;;6156793;23;20002;-80
2022/04/11 19:30:04;;;;;;;6.63;5.20;;;;;;;;;;6155967;23;20044;-80
2022/04/11 19:32:29;;;;;;;8.45;6.20;;;;;;;;;;6156536;23;20001;-79
2022/04/11 19:34:55;;;;;;;14.27;7.70;;;;;;;;;;6156375;23;20006;-80
2022/04/11 19:37:20;;;;;;;10.02;7.13;;;;;;;;;;6156360;23;20310;-79
2022/04/11 19:39:46;;;;;;;10.05;6.68;;;;;;;;;;6156373;23;20005;-79
2022/04/11 19:42:12;;;;;;;10.98;7.00;;;;;;;;;;6179488;23;20080;-80
2022/04/11 19:44:38;;;;;;;8.20;6.32;;;;;;;;;;6156316;23;20329;-80
2022/04/11 19:47:05;;;;;;;21.35;13.32;;;;;;;;;;6156396;23;20005;-80
2022/04/11 19:49:50;;;;;;;22.60;14.85;;;;;;;;;;6156410;23;20059;-80
2022/04/11 19:52:18;;;;;;;26.40;14.77;;;;;;;;;;6156321;23;20009;-80
2022/04/11 19:54:44;;;;;;;68.35;40.72;;;;;;;;;;6156225;23;20009;-80
2022/04/11 19:57:10;;;;;;;10.00;6.35;;;;;;;;;;6155011;23;20002;-81
2022/04/11 19:59:36;;;;;;;153.25;138.65;;;;;;;;;;6155867;23;20005;-80
2022/04/11 20:02:03;;;;;;;9.10;7.15;;;;;;;;;;6155933;23;20333;-80
2022/04/11 20:04:31;;;;;;;9.82;5.75;;;;;;;;;;6156206;23;20009;-80
2022/04/11 20:06:58;;;;;;;8.57;6.10;;;;;;;;;;6155842;23;20006;-80
2022/04/11 20:09:23;;;;;;;8.98;5.82;;;;;;;;;;6155962;23;20036;-80
2022/04/11 20:11:49;;;;;;;6.47;4.75;;;;;;;;;;6156268;23;20005;-80
2022/04/11 20:14:15;;;;;;;8.82;5.88;;;;;;;;;;6156263;23;20012;-79
2022/04/11 20:16:40;;;;;;;8.73;6.82;;;;;;;;;;6155964;23;20029;-80
2022/04/11 20:19:06;;;;;;;9.63;6.88;;;;;;;;;;6156233;23;20010;-81
2022/04/11 20:21:32;;;;;;;10.25;7.55;;;;;;;;;;6155815;23;20057;-78
2022/04/11 20:23:58;;;;;;;9.90;7.20;;;;;;;;;;6156017;23;20001;-82
2022/04/11 20:26:24;;;;;;;8.98;6.03;;;;;;;;;;6156058;23;20435;-82
2022/04/11 20:28:49;;;;;;;7.35;5.60;;;;;;;;;;6155800;23;20045;-82
2022/04/11 20:31:15;;;;;;;9.45;5.63;;;;;;;;;;6155907;23;20306;-81
2022/04/11 20:33:41;;;;;;;8.50;6.22;;;;;;;;;;6156228;23;20033;-80
2022/04/11 20:36:07;;;;;;;8.73;5.90;;;;;;;;;;6156009;23;20009;-81
2022/04/11 20:38:34;;;;;;;7.18;5.63;;;;;;;;;;6156091;23;20024;-81
2022/04/11 20:41:00;;;;;;;8.02;5.57;;;;;;;;;;6155856;23;20005;-80
2022/04/11 20:43:26;;;;;;;8.50;5.90;;;;;;;;;;6157837;23;20086;-80
2022/04/11 20:45:51;;;;;;;6.63;5.05;;;;;;;;;;6157864;23;20029;-78
2022/04/11 20:48:17;;;;;;;7.90;6.07;;;;;;;;;;6181041;23;20005;-80
2022/04/11 20:50:43;;;;;;;9.18;6.32;;;;;;;;;;6157313;23;20063;-81
2022/04/11 20:53:09;;;;;;;10.27;6.30;;;;;;;;;;6157810;23;20006;-79
2022/04/11 20:55:40;;;;;;;9.07;5.70;;;;;;;;;;6157730;23;20354;-79
2022/04/11 20:58:18;;;;;;;7.75;5.65;;;;;;;;;;6158004;23;20001;-80
2022/04/11 21:00:45;;;;;;;9.23;5.68;;;;;;;;;;6157778;23;20081;-79
2022/04/11 21:03:12;;;;;;;8.32;5.90;;;;;;;;;;6156085;23;20045;-79
2022/04/11 21:05:39;;;;;;;8.32;6.13;;;;;;;;;;6157632;23;20048;-80
2022/04/11 21:08:05;;;;;;;10.23;5.43;;;;;;;;;;6157659;23;20009;-80
2022/04/11 21:10:32;;;;;;;9.27;6.53;;;;;;;;;;6157767;23;20009;-79
2022/04/11 21:12:58;;;;;;;7.00;5.68;;;;;;;;;;6157961;23;20016;-79
2022/04/11 21:15:24;;;;;;;8.20;5.90;;;;;;;;;;6157492;23;20005;-79
2022/04/11 21:17:50;;;;;;;8.85;6.18;;;;;;;;;;6157479;23;20060;-80
2022/04/11 21:20:16;;;;;;;6.78;5.15;;;;;;;;;;6157679;23;20051;-80
2022/04/11 21:22:41;;;;;;;7.82;5.63;;;;;;;;;;6157722;23;20005;-80
2022/04/11 21:25:07;;;;;;;7.95;5.57;;;;;;;;;;6157757;23;20002;-80
2022/04/11 21:27:32;;;;;;;9.70;5.68;;;;;;;;;;6157428;23;20346;-80
2022/04/11 21:29:58;;;;;;;7.70;5.85;;;;;;;;;;6157425;23;20009;-79
2022/04/11 21:32:23;;;;;;;8.15;5.65;;;;;;;;;;6180675;23;20009;-79
2022/04/11 21:34:49;;;;;;;8.90;5.75;;;;;;;;;;6157557;23;20029;-79
2022/04/11 21:37:14;;;;;;;8.32;5.53;;;;;;;;;;6180758;23;20001;-80
2022/04/11 21:39:40;;;;;;;8.57;5.82;;;;;;;;;;6157587;23;20001;-79
2022/04/11 21:42:05;;;;;;;8.77;6.22;;;;;;;;;;6157377;23;20416;-79
2022/04/11 21:44:31;;;;;;;9.63;6.97;;;;;;;;;;6157259;23;20008;-79
2022/04/11 21:46:56;;;;;;;11.00;7.10;;;;;;;;;;6157213;23;20484;-79
2022/04/11 21:49:22;;;;;;;8.55;5.72;;;;;;;;;;6157683;23;20009;-79
2022/04/11 21:51:48;;;;;;;9.00;6.25;;;;;;;;;;6157576;23;20325;-79
2022/04/11 21:54:13;;;;;;;9.05;5.72;;;;;;;;;;6157190;23;20041;-79
2022/04/11 21:56:40;;;;;;;9.88;6.07;;;;;;;;;;6157188;23;20073;-79
2022/04/11 21:59:07;;;;;;;10.70;6.32;;;;;;;;;;6157338;23;20182;-80
2022/04/11 22:01:35;;;;;;;8.18;5.60;;;;;;;;;;6156986;23;20012;-79
2022/04/11 22:04:05;;;;;;;7.75;5.70;;;;;;;;;;6157600;23;19998;-79
2022/04/11 22:06:31;;;;;;;8.40;5.57;;;;;;;;;;6157303;23;20048;-80
2022/04/11 22:08:56;;;;;;;7.82;5.50;;;;;;;;;;6157292;23;20009;-79
2022/04/11 22:11:22;;;;;;;9.02;5.63;;;;;;;;;;6157829;23;20132;-82
2022/04/11 22:13:48;;;;;;;6.53;5.15;;;;;;;;;;6157677;23;20416;-82
2022/04/11 22:16:14;;;;;;;9.40;5.93;;;;;;;;;;6157328;23;20008;-81
